Time;durP1;ratioP1;P1;durP2;ratioP2;P2;SDS_P1;SDS_P2;PMS_P1;PMS_P2;Temp;Humidity;BMP_temperature;BMP_pressure;BME280_temperature;BME280_humidity;BME280_pressure;Samples;Min_cycle;Max_cycle;Signal;HPM_P1;HPM_P2
2023/03/15 00:13:23;;;;;;;5.00;0.90;;;;;;;5.69;56.98;97026.41;9890418;29;20063;-85
2023/03/15 00:18:45;;;;;;;5.72;0.85;;;;;;;5.67;56.81;97040.84;9891574;29;20064;-83
2023/03/15 00:24:10;;;;;;;8.35;1.15;;;;;;;5.72;56.80;97056.44;9879000;29;20067;-84
2023/03/15 04:36:24;;;;;;;3.95;0.65;;;;;;;3.91;56.16;97312.97;11831041;24;20036;-84
2023/03/15 04:54:48;;;;;;;7.30;1.23;;;;;;;3.78;56.83;97340.84;10478627;24;20075;-83
2023/03/15 05:00:28;;;;;;;7.95;1.00;;;;;;;3.73;56.58;97348.03;9897866;30;20056;-81
2023/03/15 05:06:06;;;;;;;5.05;0.98;;;;;;;3.66;56.81;97354.31;9899137;30;20111;-81
2023/03/15 05:11:28;;;;;;;5.82;0.98;;;;;;;3.63;56.82;97363.72;9898285;29;20051;-83
2023/03/15 05:24:02;;;;;;;9.02;0.85;;;;;;;3.51;57.41;97370.94;9792518;30;20117;-83
2023/03/15 05:29:32;;;;;;;6.68;1.42;;;;;;;3.40;56.83;97385.13;9709979;30;20084;-83
2023/03/15 05:35:26;;;;;;;6.90;1.02;;;;;;;3.31;57.67;97382.94;9735917;30;20050;-84
2023/03/15 06:38:22;;;;;;;8.73;1.65;;;;;;;20.98;36.36;97519.13;11184613;24;20404;-85
2023/03/15 06:44:11;;;;;;;5.35;1.00;;;;;;;21.83;32.37;97515.28;9900374;29;20063;-87
2023/03/15 06:49:34;;;;;;;8.82;1.60;;;;;;;23.12;30.96;97530.34;9895227;30;20059;-87
2023/03/15 06:54:55;;;;;;;11.38;1.58;;;;;;;23.75;27.76;97529.78;9880606;30;20059;-85
2023/03/15 07:00:16;;;;;;;7.28;1.05;;;;;;;21.95;29.50;97543.22;9880674;30;20051;-86
2023/03/15 07:05:37;;;;;;;6.47;1.35;;;;;;;22.75;27.73;97542.53;9862810;29;20056;-86
2023/03/15 07:10:59;;;;;;;7.47;1.38;;;;;;;25.19;24.33;97545.47;9857865;30;20420;-87
2023/03/15 07:16:19;;;;;;;8.05;1.50;;;;;;;24.11;20.64;97558.00;9844245;30;20082;-92
2023/03/15 07:21:40;;;;;;;5.07;1.10;;;;;;;22.43;24.61;97576.84;9872972;30;20514;-85
2023/03/15 07:27:01;;;;;;;7.72;1.50;;;;;;;21.60;25.27;97573.75;9868981;30;20482;-85
2023/03/15 07:32:22;;;;;;;4.72;1.08;;;;;;;20.97;26.35;97595.00;9881400;30;20510;-84
2023/03/15 07:37:45;;;;;;;7.18;1.52;;;;;;;21.64;28.92;97601.53;9868087;30;20071;-82
2023/03/15 07:43:06;;;;;;;4.90;1.00;;;;;;;24.82;28.25;97601.53;9821368;30;20060;-82
2023/03/15 07:48:28;;;;;;;4.53;0.95;;;;;;;29.71;22.03;97610.69;9855463;30;20056;-83
2023/03/15 07:53:50;;;;;;;6.32;1.30;;;;;;;34.81;17.43;97610.34;9857630;30;20047;-82
2023/03/15 07:59:11;;;;;;;4.13;0.90;;;;;;;38.30;13.84;97613.06;9893346;30;20418;-86
2023/03/15 08:04:32;;;;;;;4.70;0.80;;;;;;;40.53;11.38;97603.38;9857441;30;20056;-86
2023/03/15 08:09:57;;;;;;;4.22;0.75;;;;;;;41.35;8.91;97601.72;9809289;30;20068;-86
2023/03/15 08:15:18;;;;;;;5.13;0.90;;;;;;;42.48;8.29;97599.94;9839588;30;20048;-86
2023/03/15 08:20:48;;;;;;;3.78;0.70;;;;;;;43.22;6.11;97595.22;9825883;30;20071;-85
2023/03/15 08:26:09;;;;;;;3.55;0.73;;;;;;;43.17;6.64;97609.47;9834330;30;20519;-86
2023/03/15 08:31:31;;;;;;;4.05;0.70;;;;;;;42.49;5.84;97600.66;9864104;30;20507;-85
2023/03/15 08:36:52;;;;;;;2.92;0.55;;;;;;;42.12;5.81;97600.00;9851168;30;20499;-85
2023/03/15 08:42:14;;;;;;;3.40;0.77;;;;;;;42.16;5.49;97611.47;9847831;30;20096;-85
2023/03/15 08:47:36;;;;;;;3.40;0.57;;;;;;;42.44;4.69;97606.06;9851531;30;20059;-84
2023/03/15 08:53:07;;;;;;;3.13;0.80;;;;;;;43.16;4.51;97605.16;9851449;30;20384;-84
2023/03/15 08:58:28;;;;;;;2.78;0.70;;;;;;;43.93;4.36;97599.22;9894910;30;20044;-85
2023/03/15 09:03:50;;;;;;;4.30;0.60;;;;;;;44.08;3.92;97604.81;9875893;30;20055;-89
2023/03/15 09:09:16;;;;;;;2.35;0.60;;;;;;;44.20;3.95;97612.78;9850872;30;20064;-84
2023/03/15 09:14:37;;;;;;;4.60;0.63;;;;;;;44.73;3.66;97620.78;9851931;30;20055;-82
2023/03/15 09:19:58;;;;;;;1.85;0.68;;;;;;;45.22;3.33;97620.16;9886488;30;20070;-83
2023/03/15 09:25:31;;;;;;;3.88;0.80;;;;;;;44.86;2.68;97621.28;9829483;30;20495;-84
2023/03/15 09:31:02;;;;;;;2.58;0.40;;;;;;;44.92;3.00;97611.34;9827905;30;20119;-85
2023/03/15 09:36:25;;;;;;;5.15;0.35;;;;;;;44.76;2.82;97610.97;9908481;29;20556;-84
2023/03/15 09:41:53;;;;;;;4.40;0.52;;;;;;;43.69;2.72;97619.22;9887892;30;20093;-84
2023/03/15 09:47:28;;;;;;;1.85;0.47;;;;;;;44.65;3.36;97619.13;9845762;30;20067;-81
2023/03/15 09:52:53;;;;;;;1.92;0.30;;;;;;;45.01;2.82;97621.66;9826510;30;20135;-81
2023/03/15 09:58:33;;;;;;;3.83;0.52;;;;;;;44.66;2.22;97632.28;9826148;30;20488;-85
2023/03/15 10:04:26;;;;;;;3.20;0.50;;;;;;;45.18;2.86;97635.19;9885685;30;20524;-84
2023/03/15 10:09:48;;;;;;;2.38;0.50;;;;;;;42.64;2.98;97644.47;9886298;30;20499;-84
2023/03/15 10:15:43;;;;;;;4.35;0.68;;;;;;;35.88;4.27;97628.59;9884375;30;20138;-87
2023/03/15 10:21:44;;;;;;;2.53;0.60;;;;;;;33.54;6.21;97630.59;9889550;30;20495;-81
2023/03/15 10:27:23;;;;;;;3.00;0.50;;;;;;;28.38;7.67;97622.47;9860941;30;20064;-79
2023/03/15 10:32:46;;;;;;;3.22;0.57;;;;;;;30.08;8.18;97613.91;9848163;30;20503;-84
2023/03/15 10:38:21;;;;;;;4.32;0.40;;;;;;;27.91;9.15;97625.50;9838109;30;20060;-85
2023/03/15 10:43:44;;;;;;;3.60;0.68;;;;;;;25.33;9.18;97619.81;9847799;30;20511;-83
2023/03/15 10:49:10;;;;;;;5.38;0.68;;;;;;;23.38;11.62;97620.41;9859972;30;20104;-81
2023/03/15 10:54:32;;;;;;;5.50;1.17;;;;;;;26.30;11.44;97607.50;9847980;30;20060;-82
2023/03/15 10:59:56;;;;;;;5.55;0.70;;;;;;;25.38;10.23;97600.56;9847228;30;20113;-78
2023/03/15 11:05:17;;;;;;;3.63;0.60;;;;;;;22.54;12.22;97604.78;9859216;30;20060;-76
2023/03/15 11:10:38;;;;;;;6.57;0.77;;;;;;;19.66;13.15;97610.59;9846989;30;20067;-76
2023/03/15 11:16:04;;;;;;;3.90;0.75;;;;;;;18.42;14.62;97603.72;9858631;30;20083;-80
2023/03/15 11:21:29;;;;;;;6.13;0.80;;;;;;;17.89;16.63;97604.69;9854086;30;20075;-81
2023/03/15 11:26:52;;;;;;;4.18;0.90;;;;;;;18.09;16.33;97601.16;9844191;30;20392;-82
2023/03/15 11:32:14;;;;;;;;;;;;;;;17.87;17.69;97601.78;9869938;30;20082;-80
2023/03/15 11:37:40;;;;;;;7.70;0.98;;;;;;;16.82;17.75;97609.69;9828424;30;20388;-82
2023/03/15 11:43:02;;;;;;;7.90;0.93;;;;;;;17.87;18.45;97598.97;9809944;30;20530;-81
2023/03/15 11:48:39;;;;;;;3.65;0.60;;;;;;;17.45;18.72;97593.13;9822102;30;20084;-80
2023/03/15 11:54:04;;;;;;;2.88;0.40;;;;;;;16.97;19.10;97588.41;9837694;30;20067;-80
2023/03/15 11:59:31;;;;;;;5.40;0.60;;;;;;;17.11;20.79;97584.06;9854152;30;20130;-79
2023/03/15 12:04:53;;;;;;;3.22;0.40;;;;;;;17.49;19.76;97595.41;9839612;30;20079;-81
2023/03/15 12:10:19;;;;;;;3.85;0.63;;;;;;;16.48;20.89;97592.03;9839522;30;20131;-81
2023/03/15 12:15:41;;;;;;;2.95;0.47;;;;;;;16.09;21.66;97598.09;9854004;30;20076;-80
2023/03/15 12:21:06;;;;;;;2.75;0.45;;;;;;;16.24;21.57;97586.09;9853939;30;20079;-79
2023/03/15 12:26:41;;;;;;;3.10;0.50;;;;;;;16.03;23.14;97598.59;9842412;30;20076;-79
2023/03/15 12:32:02;;;;;;;4.95;0.60;;;;;;;15.65;23.43;97611.66;9843173;30;20082;-79
2023/03/15 12:37:39;;;;;;;3.97;0.60;;;;;;;14.99;24.83;97609.97;9866117;30;20523;-79
2023/03/15 12:43:00;;;;;;;3.08;0.60;;;;;;;14.10;25.95;97623.78;9858565;30;20075;-78
2023/03/15 12:48:21;;;;;;;2.83;0.80;;;;;;;13.78;27.57;97625.59;9855538;30;20056;-78
2023/03/15 12:53:43;;;;;;;2.90;0.77;;;;;;;13.97;27.45;97625.22;9831123;30;20060;-78
2023/03/15 12:59:11;;;;;;;4.30;0.65;;;;;;;13.69;29.16;97620.91;9846123;30;20188;-77
2023/03/15 13:04:32;;;;;;;4.07;0.95;;;;;;;13.38;30.63;97627.69;9856963;30;20064;-77
2023/03/15 13:10:29;;;;;;;3.92;1.10;;;;;;;13.49;31.64;97620.56;9838542;30;20068;-77
2023/03/15 13:16:03;;;;;;;4.50;1.05;;;;;;;13.43;31.25;97634.25;9848950;30;20059;-77
2023/03/15 13:21:35;;;;;;;4.85;0.88;;;;;;;13.53;31.49;97631.28;9854181;30;20113;-76
2023/03/15 13:27:03;;;;;;;2.70;1.00;;;;;;;13.11;31.51;97645.09;9840715;30;20076;-76
2023/03/15 13:32:24;;;;;;;4.97;1.42;;;;;;;12.56;32.10;97653.19;9865572;30;20109;-76
2023/03/15 13:37:44;;;;;;;6.00;0.88;;;;;;;11.80;32.94;97668.91;9865043;30;20177;-76
2023/03/15 13:43:08;;;;;;;4.25;0.95;;;;;;;11.11;35.08;97680.00;9876540;30;20051;-76
2023/03/15 13:48:34;;;;;;;5.05;1.13;;;;;;;10.43;37.11;97690.91;9861205;30;20500;-76
2023/03/15 13:53:59;;;;;;;3.45;0.73;;;;;;;11.44;37.66;97690.44;9852058;30;20052;-77
2023/03/15 13:59:22;;;;;;;3.30;0.70;;;;;;;12.39;37.15;97692.03;9845637;30;20059;-78
2023/03/15 14:04:43;;;;;;;3.53;0.70;;;;;;;12.26;37.11;97696.91;9862029;30;20048;-77
2023/03/15 14:10:17;;;;;;;5.45;0.90;;;;;;;11.61;38.08;97712.50;9860883;30;20084;-77
2023/03/15 14:15:42;;;;;;;4.70;0.90;;;;;;;10.83;39.37;97717.25;9871783;30;20109;-77
2023/03/15 14:21:16;;;;;;;2.60;0.70;;;;;;;10.14;39.75;97718.91;9848075;30;20064;-77
2023/03/15 14:26:38;;;;;;;1.95;0.60;;;;;;;9.74;40.78;97716.81;9854584;30;20144;-77
2023/03/15 14:32:27;;;;;;;1.38;0.40;;;;;;;9.38;40.51;97701.78;9845910;30;20068;-77
2023/03/15 14:38:06;;;;;;;1.73;0.50;;;;;;;9.11;42.93;97701.22;9863871;30;20059;-76
2023/03/15 14:43:27;;;;;;;1.00;0.40;;;;;;;9.06;43.23;97688.31;9850336;30;20059;-78
2023/03/15 14:48:49;;;;;;;3.45;0.63;;;;;;;9.06;42.72;97689.03;9861103;30;20535;-77
2023/03/15 14:54:12;;;;;;;1.77;0.50;;;;;;;8.99;43.87;97706.63;9876799;30;20063;-78
2023/03/15 14:59:32;;;;;;;2.63;1.00;;;;;;;8.77;44.67;97711.28;9864913;30;20112;-78
2023/03/15 15:04:53;;;;;;;3.97;0.80;;;;;;;8.52;45.30;97708.75;9860649;30;20063;-76
2023/03/15 15:10:14;;;;;;;2.45;0.80;;;;;;;8.37;45.05;97727.75;9843094;30;20110;-76
2023/03/15 15:15:35;;;;;;;4.28;0.77;;;;;;;8.46;45.29;97724.25;9830417;30;20083;-76
2023/03/15 15:21:30;;;;;;;2.95;1.00;;;;;;;8.68;45.63;97720.34;9834340;30;20068;-76
2023/03/15 15:26:53;;;;;;;2.72;0.80;;;;;;;8.87;45.77;97716.88;9914212;30;20076;-76
2023/03/15 15:32:14;;;;;;;4.68;1.17;;;;;;;8.84;45.97;97734.75;9900770;30;20074;-76
2023/03/15 15:37:35;;;;;;;3.97;1.35;;;;;;;8.59;47.21;97740.56;9837455;30;20100;-76
2023/03/15 15:42:56;;;;;;;3.30;1.20;;;;;;;8.36;47.87;97743.69;9849415;30;20060;-76
2023/03/15 15:48:17;;;;;;;2.92;1.00;;;;;;;8.40;47.36;97737.72;9884033;30;20055;-76
2023/03/15 15:53:38;;;;;;;2.20;0.80;;;;;;;8.46;47.36;97740.94;9886532;30;20411;-78
2023/03/15 15:59:01;;;;;;;2.03;1.00;;;;;;;8.47;47.47;97732.03;10640307;24;20061;-83
2023/03/15 16:04:34;;;;;;;2.85;1.05;;;;;;;8.21;48.03;97750.22;10153812;24;20039;-84
2023/03/15 16:35:27;;;;;;;2.05;0.60;;;;;;;7.11;50.86;97821.38;9911933;24;20490;-79
2023/03/15 16:40:47;;;;;;;0.85;0.30;;;;;;;6.86;50.63;97843.63;9887603;30;20089;-80
2023/03/15 16:46:26;;;;;;;0.80;0.20;;;;;;;6.46;52.63;97852.03;11522381;24;21118;31
2023/03/15 20:08:04;;;;;;;9.10;4.30;;;;;;;3.32;60.97;98036.28;11412629;24;20059;-82
2023/03/15 20:13:43;;;;;;;5.43;3.30;;;;;;;3.23;61.62;98042.25;11282582;24;20130;-81
2023/03/15 20:31:32;;;;;;;9.38;5.32;;;;;;;3.09;61.67;98060.91;9943532;24;20067;-75
2023/03/15 20:36:53;;;;;;;13.00;6.68;;;;;;;3.05;62.04;98065.25;9901908;30;20059;-75
2023/03/15 20:42:14;;;;;;;9.30;4.97;;;;;;;3.06;61.74;98067.47;9889345;30;20066;-75
2023/03/15 20:54:26;;;;;;;5.82;3.70;;;;;;;2.95;63.22;98089.78;11207278;24;20128;31
2023/03/15 20:59:48;;;;;;;6.60;3.30;;;;;;;2.90;61.90;98095.44;10424098;24;20060;-80
2023/03/15 21:05:09;;;;;;;6.55;3.47;;;;;;;2.83;62.73;98094.81;9910452;30;20501;-80
2023/03/15 21:10:33;;;;;;;6.22;3.90;;;;;;;2.79;62.61;98107.44;9906488;30;20055;-79
2023/03/15 21:15:54;;;;;;;7.23;4.07;;;;;;;2.72;62.90;98110.84;9904268;30;20132;-80
2023/03/15 21:21:15;;;;;;;7.72;4.30;;;;;;;2.73;62.80;98112.34;9901806;30;20296;-80
2023/03/15 21:26:36;;;;;;;9.32;4.35;;;;;;;2.71;62.67;98112.88;9893150;30;20067;-80
2023/03/15 21:31:58;;;;;;;8.55;4.43;;;;;;;2.70;62.76;98118.88;9863452;30;20556;-80
2023/03/15 21:37:19;;;;;;;6.97;3.85;;;;;;;2.64;62.59;98127.28;9864451;30;20068;-80
2023/03/15 21:42:42;;;;;;;6.57;4.32;;;;;;;2.62;62.69;98129.84;9865426;30;20059;-79
2023/03/15 21:48:03;;;;;;;5.63;3.53;;;;;;;2.53;63.11;98141.28;9864244;30;20545;-79
2023/03/15 21:53:24;;;;;;;6.22;3.67;;;;;;;2.46;62.73;98139.16;9863945;30;20063;-79
2023/03/15 21:58:45;;;;;;;5.45;3.55;;;;;;;2.38;62.94;98143.81;9876211;30;20060;-80
2023/03/15 22:04:06;;;;;;;5.93;3.38;;;;;;;2.32;63.24;98141.19;9860934;30;20052;-79
2023/03/15 22:09:28;;;;;;;6.15;3.97;;;;;;;2.28;63.20;98146.25;9862684;30;20560;-79
2023/03/15 22:14:50;;;;;;;6.45;3.50;;;;;;;2.24;63.67;98152.09;9849668;30;20141;-79
2023/03/15 22:20:25;;;;;;;9.23;3.67;;;;;;;2.22;63.44;98156.63;9865690;30;20060;-79
2023/03/15 22:25:47;;;;;;;5.93;3.63;;;;;;;2.18;63.35;98156.22;9862901;30;20060;-79
2023/03/15 22:31:10;;;;;;;9.07;3.95;;;;;;;2.17;63.32;98171.25;9860756;30;20056;-79
2023/03/15 22:36:33;;;;;;;7.53;3.97;;;;;;;2.09;63.39;98168.38;9863598;30;20495;-77
2023/03/15 22:41:54;;;;;;;7.95;4.28;;;;;;;2.04;64.08;98171.25;9859999;30;20055;-79
2023/03/15 22:47:17;;;;;;;6.25;3.58;;;;;;;2.05;63.75;98172.72;9872569;30;20055;-79
2023/03/15 22:52:38;;;;;;;7.13;3.88;;;;;;;2.04;63.73;98187.75;9860067;30;20056;-79
2023/03/15 22:57:59;;;;;;;7.95;3.92;;;;;;;1.97;63.77;98186.38;9872379;30;20144;-79
2023/03/15 23:03:20;;;;;;;6.85;3.97;;;;;;;1.95;63.62;98192.41;9870881;30;20055;-79
2023/03/15 23:08:41;;;;;;;6.43;3.88;;;;;;;1.86;63.73;98194.81;9859277;30;20067;-79
2023/03/15 23:14:02;;;;;;;6.50;3.83;;;;;;;1.78;64.05;98194.66;9860443;30;20062;-79
2023/03/15 23:19:23;;;;;;;9.50;4.40;;;;;;;1.71;64.02;98203.53;9860403;30;20060;-79
2023/03/15 23:24:45;;;;;;;7.20;4.20;;;;;;;1.65;63.52;98214.63;9861910;30;20060;-79
2023/03/15 23:30:07;;;;;;;6.88;4.32;;;;;;;1.56;64.25;98204.03;9862428;30;20060;-79
2023/03/15 23:35:28;;;;;;;8.32;4.03;;;;;;;1.54;63.74;98214.03;9874508;30;20062;-79
2023/03/15 23:40:56;;;;;;;6.82;3.80;;;;;;;1.51;64.65;98217.84;9863233;30;20179;-79
2023/03/15 23:46:17;;;;;;;7.25;4.05;;;;;;;1.49;64.13;98218.38;9863636;30;20066;-80
2023/03/15 23:51:38;;;;;;;7.43;4.13;;;;;;;1.46;64.46;98224.19;9862575;30;20139;-79
2023/03/15 23:56:59;;;;;;;7.47;4.40;;;;;;;1.43;65.02;98221.19;9862170;30;20400;-79
